sensor_id;sensor_type;location;lat;lon;timestamp;P1;durP1;ratioP1;P2;durP2;ratioP2
42802;SDS011;28447;48.682;9.022;2023-08-12T04:00:26;9.90;;;8.37;;
42802;SDS011;28447;48.682;9.022;2023-08-12T04:02:52;10.60;;;8.97;;
42802;SDS011;28447;48.682;9.022;2023-08-12T04:05:18;11.87;;;8.90;;
42802;SDS011;28447;48.682;9.022;2023-08-12T04:07:44;9.20;;;8.30;;
42802;SDS011;28447;48.682;9.022;2023-08-12T04:10:10;9.77;;;8.83;;
42802;SDS011;28447;48.682;9.022;2023-08-12T04:12:36;10.13;;;9.03;;
42802;SDS011;28447;48.682;9.022;2023-08-12T04:15:03;11.03;;;8.93;;
42802;SDS011;28447;48.682;9.022;2023-08-12T04:17:30;10.03;;;8.73;;
42802;SDS011;28447;48.682;9.022;2023-08-12T04:19:57;10.43;;;9.43;;
42802;SDS011;28447;48.682;9.022;2023-08-12T04:22:23;9.60;;;8.60;;
42802;SDS011;28447;48.682;9.022;2023-08-12T04:24:49;11.63;;;9.23;;
42802;SDS011;28447;48.682;9.022;2023-08-12T04:27:15;11.80;;;8.53;;
42802;SDS011;28447;48.682;9.022;2023-08-12T04:29:45;10.40;;;9.30;;
42802;SDS011;28447;48.682;9.022;2023-08-12T04:32:11;10.30;;;9.30;;
42802;SDS011;28447;48.682;9.022;2023-08-12T04:34:37;11.30;;;9.87;;
42802;SDS011;28447;48.682;9.022;2023-08-12T04:37:03;10.40;;;9.10;;
42802;SDS011;28447;48.682;9.022;2023-08-12T04:39:29;11.67;;;9.30;;
42802;SDS011;28447;48.682;9.022;2023-08-12T04:41:57;9.33;;;8.33;;
42802;SDS011;28447;48.682;9.022;2023-08-12T04:44:23;9.57;;;8.30;;
42802;SDS011;28447;48.682;9.022;2023-08-12T04:46:49;9.53;;;8.63;;
42802;SDS011;28447;48.682;9.022;2023-08-12T04:49:15;14.43;;;8.93;;
42802;SDS011;28447;48.682;9.022;2023-08-12T04:51:41;12.43;;;9.00;;
42802;SDS011;28447;48.682;9.022;2023-08-12T04:54:07;11.23;;;9.03;;
42802;SDS011;28447;48.682;9.022;2023-08-12T04:56:33;10.50;;;9.27;;
42802;SDS011;28447;48.682;9.022;2023-08-12T04:58:59;11.30;;;9.50;;
42802;SDS011;28447;48.682;9.022;2023-08-12T05:01:25;15.30;;;9.40;;
42802;SDS011;28447;48.682;9.022;2023-08-12T05:03:52;11.63;;;9.70;;
42802;SDS011;28447;48.682;9.022;2023-08-12T05:06:18;10.40;;;9.23;;
42802;SDS011;28447;48.682;9.022;2023-08-12T05:08:44;15.43;;;9.30;;
42802;SDS011;28447;48.682;9.022;2023-08-12T05:11:10;10.03;;;9.00;;
42802;SDS011;28447;48.682;9.022;2023-08-12T05:13:36;11.43;;;10.33;;
42802;SDS011;28447;48.682;9.022;2023-08-12T05:16:02;13.73;;;10.00;;
42802;SDS011;28447;48.682;9.022;2023-08-12T05:18:28;10.80;;;9.70;;
42802;SDS011;28447;48.682;9.022;2023-08-12T05:20:54;10.60;;;9.60;;
42802;SDS011;28447;48.682;9.022;2023-08-12T05:23:20;17.33;;;11.10;;
42802;SDS011;28447;48.682;9.022;2023-08-12T05:25:46;13.27;;;11.00;;
42802;SDS011;28447;48.682;9.022;2023-08-12T05:28:12;10.93;;;9.33;;
42802;SDS011;28447;48.682;9.022;2023-08-12T05:30:38;13.63;;;10.10;;
42802;SDS011;28447;48.682;9.022;2023-08-12T05:33:04;10.40;;;9.37;;
42802;SDS011;28447;48.682;9.022;2023-08-12T05:35:34;11.53;;;10.33;;
42802;SDS011;28447;48.682;9.022;2023-08-12T05:38:00;11.40;;;9.40;;
42802;SDS011;28447;48.682;9.022;2023-08-12T05:40:26;11.50;;;10.30;;
42802;SDS011;28447;48.682;9.022;2023-08-12T05:42:52;13.07;;;10.40;;
42802;SDS011;28447;48.682;9.022;2023-08-12T05:45:18;16.50;;;11.00;;
42802;SDS011;28447;48.682;9.022;2023-08-12T05:47:44;11.07;;;9.83;;
42802;SDS011;28447;48.682;9.022;2023-08-12T05:50:10;13.50;;;10.63;;
42802;SDS011;28447;48.682;9.022;2023-08-12T05:52:36;10.57;;;9.57;;
42802;SDS011;28447;48.682;9.022;2023-08-12T05:55:02;10.87;;;9.77;;
42802;SDS011;28447;48.682;9.022;2023-08-12T05:57:29;11.80;;;10.27;;
42802;SDS011;28447;48.682;9.022;2023-08-12T05:59:55;10.57;;;9.17;;
42802;SDS011;28447;48.682;9.022;2023-08-12T06:02:21;11.50;;;9.70;;
42802;SDS011;28447;48.682;9.022;2023-08-12T06:04:47;10.23;;;9.20;;
42802;SDS011;28447;48.682;9.022;2023-08-12T06:07:13;10.53;;;9.43;;
42802;SDS011;28447;48.682;9.022;2023-08-12T06:09:39;9.50;;;8.60;;
42802;SDS011;28447;48.682;9.022;2023-08-12T06:12:05;9.50;;;8.70;;
42802;SDS011;28447;48.682;9.022;2023-08-12T06:14:31;9.40;;;8.50;;
42802;SDS011;28447;48.682;9.022;2023-08-12T06:16:57;9.73;;;8.17;;
42802;SDS011;28447;48.682;9.022;2023-08-12T06:19:23;9.37;;;8.50;;
42802;SDS011;28447;48.682;9.022;2023-08-12T06:21:49;9.13;;;8.20;;
42802;SDS011;28447;48.682;9.022;2023-08-12T06:24:15;8.73;;;7.60;;
42802;SDS011;28447;48.682;9.022;2023-08-12T06:26:41;11.03;;;7.90;;
42802;SDS011;28447;48.682;9.022;2023-08-12T06:29:07;16.23;;;8.60;;
42802;SDS011;28447;48.682;9.022;2023-08-12T06:31:33;8.83;;;7.77;;
42802;SDS011;28447;48.682;9.022;2023-08-12T06:33:59;13.73;;;7.80;;
42802;SDS011;28447;48.682;9.022;2023-08-12T06:36:26;9.50;;;8.47;;
42802;SDS011;28447;48.682;9.022;2023-08-12T06:38:52;8.33;;;7.53;;
42802;SDS011;28447;48.682;9.022;2023-08-12T06:41:18;8.00;;;7.20;;
42802;SDS011;28447;48.682;9.022;2023-08-12T06:43:44;7.80;;;7.10;;
42802;SDS011;28447;48.682;9.022;2023-08-12T06:46:10;8.80;;;7.85;;
42802;SDS011;28447;48.682;9.022;2023-08-12T06:48:36;9.48;;;6.50;;
42802;SDS011;28447;48.682;9.022;2023-08-12T06:51:02;9.65;;;6.45;;
42802;SDS011;28447;48.682;9.022;2023-08-12T06:53:35;7.38;;;6.68;;
42802;SDS011;28447;48.682;9.022;2023-08-12T06:56:02;7.25;;;6.47;;
42802;SDS011;28447;48.682;9.022;2023-08-12T06:58:28;7.43;;;6.72;;
42802;SDS011;28447;48.682;9.022;2023-08-12T07:00:54;6.78;;;6.18;;
42802;SDS011;28447;48.682;9.022;2023-08-12T07:03:20;7.63;;;6.88;;
42802;SDS011;28447;48.682;9.022;2023-08-12T07:05:46;7.35;;;6.60;;
42802;SDS011;28447;48.682;9.022;2023-08-12T07:08:12;7.40;;;6.70;;
42802;SDS011;28447;48.682;9.022;2023-08-12T07:10:38;7.25;;;6.65;;
42802;SDS011;28447;48.682;9.022;2023-08-12T07:13:04;7.25;;;6.55;;
42802;SDS011;28447;48.682;9.022;2023-08-12T07:15:30;6.63;;;5.97;;
42802;SDS011;28447;48.682;9.022;2023-08-12T07:17:56;9.65;;;6.45;;
42802;SDS011;28447;48.682;9.022;2023-08-12T07:20:23;8.98;;;6.60;;
42802;SDS011;28447;48.682;9.022;2023-08-12T07:22:49;6.47;;;5.97;;
42802;SDS011;28447;48.682;9.022;2023-08-12T07:25:15;10.02;;;6.65;;
42802;SDS011;28447;48.682;9.022;2023-08-12T07:27:41;6.97;;;6.38;;
42802;SDS011;28447;48.682;9.022;2023-08-12T07:30:07;9.68;;;6.25;;
42802;SDS011;28447;48.682;9.022;2023-08-12T07:32:33;9.23;;;5.70;;
42802;SDS011;28447;48.682;9.022;2023-08-12T07:34:59;6.07;;;5.50;;
42802;SDS011;28447;48.682;9.022;2023-08-12T07:37:25;6.95;;;6.13;;
42802;SDS011;28447;48.682;9.022;2023-08-12T07:39:51;6.38;;;5.80;;
42802;SDS011;28447;48.682;9.022;2023-08-12T07:42:17;5.85;;;5.35;;
42802;SDS011;28447;48.682;9.022;2023-08-12T07:44:43;6.78;;;6.07;;
42802;SDS011;28447;48.682;9.022;2023-08-12T07:47:09;8.10;;;5.72;;
42802;SDS011;28447;48.682;9.022;2023-08-12T07:49:35;6.78;;;6.18;;
42802;SDS011;28447;48.682;9.022;2023-08-12T07:52:01;8.00;;;6.10;;
42802;SDS011;28447;48.682;9.022;2023-08-12T07:54:27;6.15;;;5.65;;
42802;SDS011;28447;48.682;9.022;2023-08-12T07:56:53;7.93;;;5.70;;
42802;SDS011;28447;48.682;9.022;2023-08-12T07:59:20;9.50;;;5.50;;
42802;SDS011;28447;48.682;9.022;2023-08-12T08:01:46;6.50;;;5.90;;
42802;SDS011;28447;48.682;9.022;2023-08-12T08:04:12;6.68;;;6.00;;
42802;SDS011;28447;48.682;9.022;2023-08-12T08:06:38;7.00;;;5.72;;
42802;SDS011;28447;48.682;9.022;2023-08-12T08:09:04;6.35;;;5.53;;
42802;SDS011;28447;48.682;9.022;2023-08-12T08:11:30;7.43;;;5.75;;
42802;SDS011;28447;48.682;9.022;2023-08-12T08:13:57;5.28;;;4.70;;
42802;SDS011;28447;48.682;9.022;2023-08-12T08:16:23;5.90;;;5.38;;
42802;SDS011;28447;48.682;9.022;2023-08-12T08:18:49;9.73;;;5.03;;
42802;SDS011;28447;48.682;9.022;2023-08-12T08:21:15;6.47;;;4.57;;
42802;SDS011;28447;48.682;9.022;2023-08-12T08:23:41;7.75;;;4.70;;
42802;SDS011;28447;48.682;9.022;2023-08-12T08:26:08;5.82;;;5.32;;
42802;SDS011;28447;48.682;9.022;2023-08-12T08:28:34;5.07;;;4.57;;
42802;SDS011;28447;48.682;9.022;2023-08-12T08:31:00;5.90;;;5.40;;
42802;SDS011;28447;48.682;9.022;2023-08-12T08:33:26;5.75;;;4.75;;
42802;SDS011;28447;48.682;9.022;2023-08-12T08:35:56;5.55;;;5.05;;
42802;SDS011;28447;48.682;9.022;2023-08-12T08:38:22;5.53;;;5.03;;
42802;SDS011;28447;48.682;9.022;2023-08-12T08:40:51;5.55;;;4.90;;
42802;SDS011;28447;48.682;9.022;2023-08-12T08:43:20;5.68;;;5.07;;
42802;SDS011;28447;48.682;9.022;2023-08-12T08:45:52;5.28;;;4.78;;
42802;SDS011;28447;48.682;9.022;2023-08-12T08:48:19;7.82;;;4.70;;
42802;SDS011;28447;48.682;9.022;2023-08-12T08:50:45;7.07;;;5.00;;
42802;SDS011;28447;48.682;9.022;2023-08-12T08:53:11;5.03;;;4.63;;
42802;SDS011;28447;48.682;9.022;2023-08-12T08:55:39;5.00;;;4.60;;
42802;SDS011;28447;48.682;9.022;2023-08-12T08:58:05;5.75;;;4.32;;
42802;SDS011;28447;48.682;9.022;2023-08-12T09:00:31;5.07;;;4.57;;
42802;SDS011;28447;48.682;9.022;2023-08-12T09:02:58;5.07;;;4.68;;
42802;SDS011;28447;48.682;9.022;2023-08-12T09:05:24;5.45;;;5.05;;
42802;SDS011;28447;48.682;9.022;2023-08-12T09:07:52;4.90;;;4.50;;
42802;SDS011;28447;48.682;9.022;2023-08-12T09:10:20;6.93;;;4.28;;
42802;SDS011;28447;48.682;9.022;2023-08-12T09:12:46;7.70;;;4.50;;
42802;SDS011;28447;48.682;9.022;2023-08-12T09:15:12;5.72;;;4.32;;
42802;SDS011;28447;48.682;9.022;2023-08-12T09:17:39;4.63;;;4.10;;
42802;SDS011;28447;48.682;9.022;2023-08-12T09:20:05;5.15;;;4.65;;
42802;SDS011;28447;48.682;9.022;2023-08-12T09:22:36;5.07;;;4.57;;
42802;SDS011;28447;48.682;9.022;2023-08-12T09:25:03;5.50;;;4.40;;
42802;SDS011;28447;48.682;9.022;2023-08-12T09:27:31;4.85;;;4.38;;
42802;SDS011;28447;48.682;9.022;2023-08-12T09:29:57;7.63;;;4.50;;
42802;SDS011;28447;48.682;9.022;2023-08-12T09:32:23;5.63;;;5.03;;
42802;SDS011;28447;48.682;9.022;2023-08-12T09:34:50;5.57;;;5.07;;
42802;SDS011;28447;48.682;9.022;2023-08-12T09:37:17;5.15;;;4.68;;
42802;SDS011;28447;48.682;9.022;2023-08-12T09:39:43;6.55;;;4.53;;
42802;SDS011;28447;48.682;9.022;2023-08-12T09:42:10;4.65;;;4.20;;
42802;SDS011;28447;48.682;9.022;2023-08-12T09:44:36;5.20;;;4.35;;
42802;SDS011;28447;48.682;9.022;2023-08-12T09:47:02;5.75;;;5.15;;
42802;SDS011;28447;48.682;9.022;2023-08-12T09:49:28;5.43;;;4.93;;
42802;SDS011;28447;48.682;9.022;2023-08-12T09:51:56;8.75;;;5.30;;
42802;SDS011;28447;48.682;9.022;2023-08-12T09:54:22;4.68;;;4.15;;
42802;SDS011;28447;48.682;9.022;2023-08-12T09:56:49;8.57;;;5.20;;
42802;SDS011;28447;48.682;9.022;2023-08-12T09:59:18;5.32;;;4.82;;
42802;SDS011;28447;48.682;9.022;2023-08-12T10:01:48;7.82;;;6.00;;
42802;SDS011;28447;48.682;9.022;2023-08-12T10:04:17;5.85;;;5.32;;
42802;SDS011;28447;48.682;9.022;2023-08-12T10:06:46;6.78;;;5.68;;
42802;SDS011;28447;48.682;9.022;2023-08-12T10:09:13;6.10;;;5.07;;
42802;SDS011;28447;48.682;9.022;2023-08-12T10:11:41;9.10;;;5.40;;
42802;SDS011;28447;48.682;9.022;2023-08-12T10:14:08;8.55;;;5.35;;
42802;SDS011;28447;48.682;9.022;2023-08-12T10:16:35;5.72;;;5.22;;
42802;SDS011;28447;48.682;9.022;2023-08-12T10:19:02;5.10;;;4.60;;
42802;SDS011;28447;48.682;9.022;2023-08-12T10:21:30;7.38;;;5.90;;
42802;SDS011;28447;48.682;9.022;2023-08-12T10:23:56;6.10;;;5.60;;
42802;SDS011;28447;48.682;9.022;2023-08-12T10:26:24;6.80;;;5.53;;
42802;SDS011;28447;48.682;9.022;2023-08-12T10:28:50;7.18;;;5.50;;
42802;SDS011;28447;48.682;9.022;2023-08-12T10:31:16;5.50;;;5.00;;
42802;SDS011;28447;48.682;9.022;2023-08-12T10:33:43;5.55;;;4.93;;
42802;SDS011;28447;48.682;9.022;2023-08-12T10:36:09;5.28;;;4.78;;
42802;SDS011;28447;48.682;9.022;2023-08-12T10:38:35;5.97;;;4.70;;
42802;SDS011;28447;48.682;9.022;2023-08-12T10:41:20;5.50;;;5.00;;
42802;SDS011;28447;48.682;9.022;2023-08-12T10:46:36;5.45;;;4.95;;
42802;SDS011;28447;48.682;9.022;2023-08-12T10:51:47;5.85;;;4.75;;
42802;SDS011;28447;48.682;9.022;2023-08-12T10:57:04;5.65;;;5.15;;
42802;SDS011;28447;48.682;9.022;2023-08-12T11:02:16;5.72;;;5.18;;
42802;SDS011;28447;48.682;9.022;2023-08-12T11:07:18;5.97;;;4.50;;
42802;SDS011;28447;48.682;9.022;2023-08-12T11:09:44;5.70;;;5.20;;
42802;SDS011;28447;48.682;9.022;2023-08-12T11:12:11;7.75;;;4.80;;
42802;SDS011;28447;48.682;9.022;2023-08-12T11:14:48;5.50;;;5.00;;
42802;SDS011;28447;48.682;9.022;2023-08-12T11:17:27;4.72;;;4.32;;
42802;SDS011;28447;48.682;9.022;2023-08-12T11:20:00;5.53;;;5.03;;
42802;SDS011;28447;48.682;9.022;2023-08-12T11:22:29;5.85;;;5.03;;
42802;SDS011;28447;48.682;9.022;2023-08-12T11:24:55;5.60;;;5.10;;
42802;SDS011;28447;48.682;9.022;2023-08-12T11:27:21;6.13;;;5.13;;
42802;SDS011;28447;48.682;9.022;2023-08-12T11:29:49;6.00;;;5.47;;
42802;SDS011;28447;48.682;9.022;2023-08-12T11:32:16;5.60;;;5.10;;
42802;SDS011;28447;48.682;9.022;2023-08-12T11:34:43;5.25;;;4.55;;
42802;SDS011;28447;48.682;9.022;2023-08-12T11:37:09;5.55;;;5.03;;
42802;SDS011;28447;48.682;9.022;2023-08-12T11:39:34;5.35;;;4.22;;
42802;SDS011;28447;48.682;9.022;2023-08-12T11:42:00;8.07;;;4.40;;
42802;SDS011;28447;48.682;9.022;2023-08-12T11:44:26;9.48;;;4.97;;
42802;SDS011;28447;48.682;9.022;2023-08-12T11:46:51;5.38;;;4.88;;
42802;SDS011;28447;48.682;9.022;2023-08-12T11:49:17;6.18;;;5.50;;
42802;SDS011;28447;48.682;9.022;2023-08-12T11:51:43;5.93;;;5.43;;
42802;SDS011;28447;48.682;9.022;2023-08-12T11:54:12;5.78;;;5.28;;
42802;SDS011;28447;48.682;9.022;2023-08-12T11:56:38;6.10;;;5.03;;
42802;SDS011;28447;48.682;9.022;2023-08-12T11:59:04;5.55;;;5.03;;
42802;SDS011;28447;48.682;9.022;2023-08-12T12:01:31;7.65;;;5.32;;
42802;SDS011;28447;48.682;9.022;2023-08-12T12:03:59;6.70;;;4.88;;
42802;SDS011;28447;48.682;9.022;2023-08-12T12:06:32;6.13;;;5.22;;
42802;SDS011;28447;48.682;9.022;2023-08-12T12:09:08;6.70;;;4.88;;
42802;SDS011;28447;48.682;9.022;2023-08-12T12:11:38;5.65;;;5.15;;
42802;SDS011;28447;48.682;9.022;2023-08-12T12:14:05;7.72;;;4.93;;
42802;SDS011;28447;48.682;9.022;2023-08-12T12:16:42;4.88;;;4.18;;
42802;SDS011;28447;48.682;9.022;2023-08-12T12:19:14;6.50;;;4.70;;
42802;SDS011;28447;48.682;9.022;2023-08-12T12:21:40;5.72;;;4.30;;
42802;SDS011;28447;48.682;9.022;2023-08-12T12:24:09;9.45;;;5.10;;
42802;SDS011;28447;48.682;9.022;2023-08-12T12:26:35;6.32;;;5.20;;
42802;SDS011;28447;48.682;9.022;2023-08-12T12:29:02;11.57;;;5.53;;
42802;SDS011;28447;48.682;9.022;2023-08-12T12:31:29;6.25;;;4.82;;
42802;SDS011;28447;48.682;9.022;2023-08-12T12:33:55;7.30;;;5.05;;
42802;SDS011;28447;48.682;9.022;2023-08-12T12:36:21;6.75;;;4.47;;
42802;SDS011;28447;48.682;9.022;2023-08-12T12:38:47;10.05;;;4.97;;
42802;SDS011;28447;48.682;9.022;2023-08-12T12:41:12;6.38;;;4.22;;
42802;SDS011;28447;48.682;9.022;2023-08-12T12:43:39;5.10;;;4.60;;
42802;SDS011;28447;48.682;9.022;2023-08-12T12:46:05;8.20;;;4.68;;
42802;SDS011;28447;48.682;9.022;2023-08-12T12:48:30;8.23;;;4.95;;
42802;SDS011;28447;48.682;9.022;2023-08-12T12:50:56;6.32;;;4.80;;
42802;SDS011;28447;48.682;9.022;2023-08-12T12:53:22;5.38;;;4.82;;
42802;SDS011;28447;48.682;9.022;2023-08-12T12:55:48;6.47;;;4.47;;
42802;SDS011;28447;48.682;9.022;2023-08-12T12:58:14;5.22;;;4.72;;
42802;SDS011;28447;48.682;9.022;2023-08-12T13:00:41;6.68;;;4.65;;
42802;SDS011;28447;48.682;9.022;2023-08-12T13:03:06;6.53;;;4.35;;
42802;SDS011;28447;48.682;9.022;2023-08-12T13:05:32;6.53;;;5.22;;
42802;SDS011;28447;48.682;9.022;2023-08-12T13:07:58;11.55;;;5.18;;
42802;SDS011;28447;48.682;9.022;2023-08-12T13:10:23;5.43;;;4.43;;
42802;SDS011;28447;48.682;9.022;2023-08-12T13:12:49;7.43;;;5.07;;
42802;SDS011;28447;48.682;9.022;2023-08-12T13:15:15;6.05;;;4.82;;
42802;SDS011;28447;48.682;9.022;2023-08-12T13:17:40;6.13;;;4.93;;
42802;SDS011;28447;48.682;9.022;2023-08-12T13:20:06;7.13;;;4.65;;
42802;SDS011;28447;48.682;9.022;2023-08-12T13:22:32;5.28;;;4.78;;
42802;SDS011;28447;48.682;9.022;2023-08-12T13:24:58;6.70;;;5.30;;
42802;SDS011;28447;48.682;9.022;2023-08-12T13:27:24;6.55;;;5.55;;
42802;SDS011;28447;48.682;9.022;2023-08-12T13:29:49;6.30;;;5.07;;
42802;SDS011;28447;48.682;9.022;2023-08-12T13:32:15;6.18;;;5.53;;
42802;SDS011;28447;48.682;9.022;2023-08-12T13:34:41;6.82;;;5.22;;
42802;SDS011;28447;48.682;9.022;2023-08-12T13:37:09;6.32;;;4.68;;
42802;SDS011;28447;48.682;9.022;2023-08-12T13:39:35;6.90;;;4.43;;
42802;SDS011;28447;48.682;9.022;2023-08-12T13:42:01;5.97;;;4.85;;
42802;SDS011;28447;48.682;9.022;2023-08-12T13:44:26;6.63;;;4.63;;
42802;SDS011;28447;48.682;9.022;2023-08-12T13:46:52;5.88;;;4.25;;
42802;SDS011;28447;48.682;9.022;2023-08-12T13:49:17;5.10;;;3.60;;
42802;SDS011;28447;48.682;9.022;2023-08-12T13:51:43;7.15;;;3.78;;
42802;SDS011;28447;48.682;9.022;2023-08-12T13:54:09;4.65;;;3.53;;
42802;SDS011;28447;48.682;9.022;2023-08-12T13:56:34;5.10;;;3.35;;
42802;SDS011;28447;48.682;9.022;2023-08-12T13:59:00;3.92;;;3.58;;
42802;SDS011;28447;48.682;9.022;2023-08-12T14:01:25;3.92;;;3.53;;
42802;SDS011;28447;48.682;9.022;2023-08-12T14:03:51;5.18;;;3.83;;
42802;SDS011;28447;48.682;9.022;2023-08-12T14:06:17;4.93;;;3.17;;
42802;SDS011;28447;48.682;9.022;2023-08-12T14:08:42;3.33;;;3.03;;
42802;SDS011;28447;48.682;9.022;2023-08-12T14:11:08;3.13;;;2.83;;
42802;SDS011;28447;48.682;9.022;2023-08-12T14:13:33;4.45;;;3.50;;
42802;SDS011;28447;48.682;9.022;2023-08-12T14:15:59;3.13;;;2.83;;
42802;SDS011;28447;48.682;9.022;2023-08-12T14:18:25;4.25;;;3.13;;
42802;SDS011;28447;48.682;9.022;2023-08-12T14:20:50;3.10;;;2.85;;
42802;SDS011;28447;48.682;9.022;2023-08-12T14:23:16;4.50;;;3.45;;
42802;SDS011;28447;48.682;9.022;2023-08-12T14:25:41;3.83;;;3.22;;
42802;SDS011;28447;48.682;9.022;2023-08-12T14:28:07;3.72;;;3.33;;
42802;SDS011;28447;48.682;9.022;2023-08-12T14:30:33;3.67;;;3.38;;
42802;SDS011;28447;48.682;9.022;2023-08-12T14:32:58;3.97;;;3.58;;
42802;SDS011;28447;48.682;9.022;2023-08-12T14:35:24;3.72;;;3.30;;
42802;SDS011;28447;48.682;9.022;2023-08-12T14:37:50;4.03;;;3.15;;
42802;SDS011;28447;48.682;9.022;2023-08-12T14:40:15;3.58;;;3.28;;
42802;SDS011;28447;48.682;9.022;2023-08-12T14:42:41;3.58;;;2.80;;
42802;SDS011;28447;48.682;9.022;2023-08-12T14:45:07;4.22;;;3.28;;
42802;SDS011;28447;48.682;9.022;2023-08-12T14:47:33;3.30;;;3.00;;
42802;SDS011;28447;48.682;9.022;2023-08-12T14:49:58;4.00;;;3.00;;
42802;SDS011;28447;48.682;9.022;2023-08-12T14:52:24;3.75;;;3.00;;
42802;SDS011;28447;48.682;9.022;2023-08-12T14:54:50;4.00;;;2.85;;
42802;SDS011;28447;48.682;9.022;2023-08-12T14:57:15;7.38;;;3.08;;
42802;SDS011;28447;48.682;9.022;2023-08-12T14:59:41;3.50;;;3.05;;
42802;SDS011;28447;48.682;9.022;2023-08-12T15:02:07;3.60;;;2.95;;
42802;SDS011;28447;48.682;9.022;2023-08-12T15:04:33;3.20;;;2.90;;
42802;SDS011;28447;48.682;9.022;2023-08-12T15:06:59;4.53;;;2.95;;
42802;SDS011;28447;48.682;9.022;2023-08-12T15:09:25;3.40;;;3.10;;
42802;SDS011;28447;48.682;9.022;2023-08-12T15:11:50;4.68;;;2.90;;
42802;SDS011;28447;48.682;9.022;2023-08-12T15:14:16;3.60;;;3.03;;
42802;SDS011;28447;48.682;9.022;2023-08-12T15:16:42;3.78;;;3.47;;
42802;SDS011;28447;48.682;9.022;2023-08-12T15:19:08;3.10;;;2.90;;
42802;SDS011;28447;48.682;9.022;2023-08-12T15:21:34;3.35;;;2.90;;
42802;SDS011;28447;48.682;9.022;2023-08-12T15:24:00;3.65;;;3.35;;
42802;SDS011;28447;48.682;9.022;2023-08-12T15:26:25;3.50;;;3.20;;
42802;SDS011;28447;48.682;9.022;2023-08-12T15:28:51;5.35;;;3.08;;
42802;SDS011;28447;48.682;9.022;2023-08-12T15:31:17;4.45;;;3.67;;
42802;SDS011;28447;48.682;9.022;2023-08-12T15:33:42;4.50;;;4.10;;
42802;SDS011;28447;48.682;9.022;2023-08-12T15:36:08;4.47;;;4.03;;
42802;SDS011;28447;48.682;9.022;2023-08-12T15:38:34;5.15;;;4.18;;
42802;SDS011;28447;48.682;9.022;2023-08-12T15:41:00;4.90;;;3.55;;
42802;SDS011;28447;48.682;9.022;2023-08-12T15:43:26;5.03;;;3.97;;
42802;SDS011;28447;48.682;9.022;2023-08-12T15:45:51;5.75;;;4.70;;
42802;SDS011;28447;48.682;9.022;2023-08-12T15:48:17;4.80;;;4.30;;
42802;SDS011;28447;48.682;9.022;2023-08-12T15:50:43;4.18;;;3.80;;
42802;SDS011;28447;48.682;9.022;2023-08-12T15:53:09;5.90;;;4.43;;
42802;SDS011;28447;48.682;9.022;2023-08-12T15:55:35;4.72;;;4.22;;
42802;SDS011;28447;48.682;9.022;2023-08-12T15:58:01;6.03;;;4.60;;
42802;SDS011;28447;48.682;9.022;2023-08-12T16:00:27;6.15;;;4.50;;
42802;SDS011;28447;48.682;9.022;2023-08-12T16:02:52;4.47;;;4.07;;
42802;SDS011;28447;48.682;9.022;2023-08-12T16:05:18;6.35;;;4.32;;
42802;SDS011;28447;48.682;9.022;2023-08-12T16:07:44;6.43;;;5.10;;
42802;SDS011;28447;48.682;9.022;2023-08-12T16:10:10;12.18;;;7.68;;
42802;SDS011;28447;48.682;9.022;2023-08-12T16:12:36;5.67;;;3.70;;
42802;SDS011;28447;48.682;9.022;2023-08-12T16:15:01;4.83;;;2.63;;
42802;SDS011;28447;48.682;9.022;2023-08-12T16:17:27;10.23;;;5.37;;
42802;SDS011;28447;48.682;9.022;2023-08-12T16:19:53;6.73;;;5.50;;
42802;SDS011;28447;48.682;9.022;2023-08-12T16:22:18;10.87;;;8.20;;
42802;SDS011;28447;48.682;9.022;2023-08-12T16:24:44;12.93;;;10.30;;
42802;SDS011;28447;48.682;9.022;2023-08-12T16:27:11;17.30;;;10.00;;
42802;SDS011;28447;48.682;9.022;2023-08-12T16:29:37;12.10;;;10.70;;
42802;SDS011;28447;48.682;9.022;2023-08-12T16:32:02;13.50;;;12.10;;
42802;SDS011;28447;48.682;9.022;2023-08-12T16:34:28;12.73;;;11.40;;
42802;SDS011;28447;48.682;9.022;2023-08-12T16:36:54;14.03;;;12.53;;
42802;SDS011;28447;48.682;9.022;2023-08-12T16:39:19;20.23;;;13.90;;
42802;SDS011;28447;48.682;9.022;2023-08-12T16:41:45;17.63;;;14.13;;
42802;SDS011;28447;48.682;9.022;2023-08-12T16:44:11;18.53;;;15.10;;
42802;SDS011;28447;48.682;9.022;2023-08-12T16:46:36;15.93;;;14.33;;
42802;SDS011;28447;48.682;9.022;2023-08-12T16:49:02;20.87;;;15.80;;
42802;SDS011;28447;48.682;9.022;2023-08-12T16:51:27;17.00;;;13.60;;
42802;SDS011;28447;48.682;9.022;2023-08-12T16:53:53;16.93;;;15.00;;
42802;SDS011;28447;48.682;9.022;2023-08-12T16:56:19;14.40;;;12.53;;
42802;SDS011;28447;48.682;9.022;2023-08-12T16:58:45;17.30;;;12.57;;
42802;SDS011;28447;48.682;9.022;2023-08-12T17:01:10;17.40;;;11.97;;
42802;SDS011;28447;48.682;9.022;2023-08-12T17:03:37;29.37;;;25.80;;
42802;SDS011;28447;48.682;9.022;2023-08-12T17:06:03;20.13;;;18.13;;
42802;SDS011;28447;48.682;9.022;2023-08-12T17:08:29;15.20;;;13.70;;
42802;SDS011;28447;48.682;9.022;2023-08-12T17:10:54;15.63;;;13.23;;
42802;SDS011;28447;48.682;9.022;2023-08-12T17:13:20;12.10;;;10.90;;
42802;SDS011;28447;48.682;9.022;2023-08-12T17:15:46;11.87;;;10.63;;
42802;SDS011;28447;48.682;9.022;2023-08-12T17:18:12;10.83;;;9.80;;
42802;SDS011;28447;48.682;9.022;2023-08-12T17:20:37;12.43;;;10.03;;
42802;SDS011;28447;48.682;9.022;2023-08-12T17:23:03;10.60;;;9.50;;
42802;SDS011;28447;48.682;9.022;2023-08-12T17:25:29;10.83;;;9.67;;
42802;SDS011;28447;48.682;9.022;2023-08-12T17:27:54;9.73;;;8.73;;
42802;SDS011;28447;48.682;9.022;2023-08-12T17:30:20;9.73;;;8.03;;
42802;SDS011;28447;48.682;9.022;2023-08-12T17:32:46;9.33;;;8.37;;
42802;SDS011;28447;48.682;9.022;2023-08-12T17:35:11;9.50;;;8.60;;
42802;SDS011;28447;48.682;9.022;2023-08-12T17:37:38;12.47;;;8.10;;
42802;SDS011;28447;48.682;9.022;2023-08-12T17:40:04;9.87;;;8.87;;
42802;SDS011;28447;48.682;9.022;2023-08-12T17:42:30;11.27;;;9.53;;
42802;SDS011;28447;48.682;9.022;2023-08-12T17:44:56;10.63;;;8.87;;
42802;SDS011;28447;48.682;9.022;2023-08-12T17:47:22;10.73;;;8.47;;
42802;SDS011;28447;48.682;9.022;2023-08-12T17:49:47;9.50;;;8.20;;
42802;SDS011;28447;48.682;9.022;2023-08-12T17:52:13;8.13;;;7.33;;
42802;SDS011;28447;48.682;9.022;2023-08-12T17:54:39;8.30;;;7.50;;
42802;SDS011;28447;48.682;9.022;2023-08-12T17:57:05;8.20;;;7.40;;
42802;SDS011;28447;48.682;9.022;2023-08-12T17:59:31;10.47;;;7.80;;
42802;SDS011;28447;48.682;9.022;2023-08-12T18:01:57;11.90;;;9.30;;
42802;SDS011;28447;48.682;9.022;2023-08-12T18:04:23;10.60;;;8.60;;
42802;SDS011;28447;48.682;9.022;2023-08-12T18:06:49;16.50;;;11.13;;
42802;SDS011;28447;48.682;9.022;2023-08-12T18:09:14;8.60;;;7.50;;
42802;SDS011;28447;48.682;9.022;2023-08-12T18:11:42;10.93;;;9.30;;
42802;SDS011;28447;48.682;9.022;2023-08-12T18:14:08;10.50;;;8.40;;
42802;SDS011;28447;48.682;9.022;2023-08-12T18:16:34;7.60;;;6.77;;
42802;SDS011;28447;48.682;9.022;2023-08-12T18:19:00;9.20;;;7.87;;
42802;SDS011;28447;48.682;9.022;2023-08-12T18:21:26;8.67;;;7.77;;
42802;SDS011;28447;48.682;9.022;2023-08-12T18:23:52;8.53;;;7.50;;
42802;SDS011;28447;48.682;9.022;2023-08-12T18:26:17;8.83;;;7.43;;
42802;SDS011;28447;48.682;9.022;2023-08-12T18:28:43;7.30;;;6.60;;
42802;SDS011;28447;48.682;9.022;2023-08-12T18:31:08;7.90;;;7.20;;
42802;SDS011;28447;48.682;9.022;2023-08-12T18:33:34;8.97;;;7.93;;
42802;SDS011;28447;48.682;9.022;2023-08-12T18:35:59;12.30;;;8.50;;
42802;SDS011;28447;48.682;9.022;2023-08-12T18:38:26;9.30;;;8.00;;
42802;SDS011;28447;48.682;9.022;2023-08-12T18:40:51;9.17;;;8.37;;
42802;SDS011;28447;48.682;9.022;2023-08-12T18:43:17;10.50;;;8.60;;
42802;SDS011;28447;48.682;9.022;2023-08-12T18:45:42;8.73;;;7.90;;
42802;SDS011;28447;48.682;9.022;2023-08-12T18:48:08;12.43;;;8.17;;
42802;SDS011;28447;48.682;9.022;2023-08-12T18:50:34;9.20;;;8.30;;